Southwell, United Kingdom
Current Conditions -  °F | °C
As of 1:50 AM on Thursday 23 Oct 2014 (Local Time) from EGXW Reporting Station
Clear Clear  
Wind Chill: 50°   Ceiling: Unl
Heat Index: 50°   Visibility: 6mi
Dew Point: 46°   Wind: 12mph
Humidity: 87%   Direction: 220°SW
Pressure: 30.09"   Gusts: NA
Location:  53.08°N, 0.96°W
Report Text: EGXW 230050Z 22010KT CAVOK 10/08 Q1019 BLU
Loading
Personal Weather Stations






























Interactive Weather Map
Tropical Storm Tracking
New forecast layout! Learn more

10-Day Weather Forecast

Advertisements
Track Severe Weather on mobile